createdAt,value
2022-12-09T00:01:52.886Z,24.73
2022-12-09T00:04:21.089Z,25.30
2022-12-09T00:06:49.431Z,25.17
2022-12-09T00:09:18.184Z,25.80
2022-12-09T00:11:46.334Z,25.87
2022-12-09T00:14:14.333Z,25.43
2022-12-09T00:16:43.759Z,26.77
2022-12-09T00:19:11.987Z,27.00
2022-12-09T00:21:40.056Z,27.40
2022-12-09T00:24:11.089Z,26.13
2022-12-09T00:26:39.429Z,26.77
2022-12-09T00:29:08.108Z,26.00
2022-12-09T00:31:38.526Z,27.13
2022-12-09T00:34:12.509Z,28.03
2022-12-09T00:36:41.012Z,28.27
2022-12-09T00:39:09.117Z,25.87
2022-12-09T00:41:37.518Z,27.70
2022-12-09T00:44:06.214Z,26.47
2022-12-09T00:46:34.296Z,24.27
2022-12-09T00:49:02.361Z,22.10
2022-12-09T00:51:31.724Z,21.97
2022-12-09T00:53:59.809Z,21.20
2022-12-09T00:56:29.451Z,22.40
2022-12-09T00:58:58.107Z,21.43
2022-12-09T01:01:27.519Z,21.33
2022-12-09T01:03:56.134Z,19.63
2022-12-09T01:06:26.319Z,19.40
2022-12-09T01:08:56.053Z,17.87
2022-12-09T01:11:26.595Z,19.23
2022-12-09T01:13:57.693Z,19.27
2022-12-09T01:16:28.699Z,18.93
2022-12-09T01:18:59.651Z,19.93
2022-12-09T01:21:28.731Z,20.70
2022-12-09T01:23:58.292Z,20.20
2022-12-09T01:26:26.445Z,19.67
2022-12-09T01:28:55.663Z,19.77
2022-12-09T01:31:25.841Z,19.90
2022-12-09T01:33:56.019Z,19.87
2022-12-09T01:36:25.743Z,19.83
2022-12-09T01:38:53.763Z,21.00
2022-12-09T01:41:23.387Z,20.70
2022-12-09T01:44:10.502Z,20.37
2022-12-09T01:46:38.824Z,19.77
2022-12-09T01:49:08.670Z,18.70
2022-12-09T01:51:38.113Z,20.13
2022-12-09T01:54:06.294Z,20.73
2022-12-09T01:56:38.636Z,20.37
2022-12-09T01:59:09.971Z,20.03
2022-12-09T02:01:39.124Z,18.63
2022-12-09T02:04:08.024Z,20.50
2022-12-09T02:06:37.818Z,19.03
2022-12-09T02:09:06.568Z,19.17
2022-12-09T02:11:46.792Z,19.53
2022-12-09T02:14:21.763Z,19.87
2022-12-09T02:16:57.234Z,20.43
2022-12-09T02:19:42.023Z,19.70
2022-12-09T02:22:13.770Z,19.90
2022-12-09T02:24:47.173Z,19.13
2022-12-09T02:27:22.875Z,18.10
2022-12-09T02:30:00.884Z,18.47
2022-12-09T02:32:49.116Z,16.70
2022-12-09T02:35:23.903Z,17.27
2022-12-09T02:37:57.661Z,17.13
2022-12-09T02:40:32.475Z,17.17
2022-12-09T02:43:03.987Z,18.00
2022-12-09T02:45:33.931Z,16.17
2022-12-09T02:48:03.757Z,16.70
2022-12-09T02:50:37.595Z,17.80
2022-12-09T02:53:09.890Z,17.13
2022-12-09T02:55:40.353Z,17.80
2022-12-09T02:58:08.747Z,17.23
2022-12-09T03:00:38.288Z,17.57
2022-12-09T03:03:09.750Z,16.20
2022-12-09T03:05:49.504Z,17.40
2022-12-09T03:08:27.697Z,17.40
2022-12-09T03:10:59.852Z,16.30
2022-12-09T03:13:46.850Z,15.90
2022-12-09T03:16:22.587Z,15.80
2022-12-09T03:18:56.862Z,15.33
2022-12-09T03:21:29.450Z,15.43
2022-12-09T03:23:59.670Z,16.00
2022-12-09T03:26:31.138Z,15.30
2022-12-09T03:29:01.239Z,15.80
2022-12-09T03:31:32.626Z,15.57
2022-12-09T03:34:05.177Z,14.63
2022-12-09T03:36:37.873Z,15.60
2022-12-09T03:39:11.189Z,15.93
2022-12-09T03:41:45.000Z,16.43
2022-12-09T03:44:17.922Z,15.87
2022-12-09T03:46:46.664Z,16.13
2022-12-09T03:49:15.384Z,16.43
2022-12-09T03:51:48.944Z,16.57
2022-12-09T03:54:21.457Z,16.77
2022-12-09T03:56:53.240Z,16.20
2022-12-09T03:59:23.275Z,15.93
2022-12-09T04:01:52.674Z,17.37
2022-12-09T04:04:21.071Z,16.90
2022-12-09T04:06:53.763Z,18.33
2022-12-09T04:09:22.382Z,17.40
2022-12-09T04:11:50.464Z,17.03
2022-12-09T04:14:18.677Z,17.40
2022-12-09T04:16:46.920Z,17.67
2022-12-09T04:19:15.168Z,16.97
2022-12-09T04:21:43.409Z,17.07
2022-12-09T04:24:13.211Z,16.63
2022-12-09T04:26:41.566Z,16.13
2022-12-09T04:29:11.383Z,16.73
2022-12-09T04:31:39.786Z,15.20
2022-12-09T04:34:09.787Z,16.90
2022-12-09T04:36:38.758Z,15.37
2022-12-09T04:39:07.544Z,15.57
2022-12-09T04:41:37.654Z,15.93
2022-12-09T04:44:06.553Z,15.63
2022-12-09T04:46:35.010Z,16.30
2022-12-09T04:49:03.260Z,15.93
2022-12-09T04:51:37.528Z,18.90
2022-12-09T04:54:08.094Z,19.33
2022-12-09T04:56:37.578Z,18.37
2022-12-09T04:59:06.257Z,19.37
2022-12-09T05:01:35.399Z,19.13
2022-12-09T05:04:04.230Z,19.27
2022-12-09T05:06:32.811Z,20.53
2022-12-09T05:09:01.187Z,24.57
2022-12-09T05:11:29.665Z,23.13
2022-12-09T05:13:59.272Z,22.40
2022-12-09T05:16:27.473Z,21.40
2022-12-09T05:18:56.200Z,22.27
2022-12-09T05:21:24.385Z,22.13
2022-12-09T05:23:53.046Z,20.17
2022-12-09T05:26:23.442Z,19.43
2022-12-09T05:28:52.434Z,20.17
2022-12-09T05:31:24.010Z,21.40
2022-12-09T05:33:53.482Z,21.17
2022-12-09T05:36:25.303Z,22.60
2022-12-09T05:38:54.088Z,21.57
2022-12-09T05:41:23.791Z,21.60
2022-12-09T05:43:52.574Z,21.23
2022-12-09T05:46:22.520Z,23.63
2022-12-09T05:48:51.082Z,24.00
2022-12-09T05:51:24.664Z,23.60
2022-12-09T05:53:53.948Z,23.67
2022-12-09T05:56:24.224Z,22.60
2022-12-09T05:58:53.361Z,23.13
2022-12-09T06:01:23.774Z,24.47
2022-12-09T06:03:53.488Z,26.13
2022-12-09T06:06:24.038Z,23.97
2022-12-09T06:08:56.456Z,23.83
2022-12-09T06:11:25.663Z,23.57
2022-12-09T06:13:54.747Z,22.43
2022-12-09T06:16:24.987Z,23.20
2022-12-09T06:18:53.549Z,25.13
2022-12-09T06:21:22.130Z,24.53
2022-12-09T06:23:51.702Z,23.80
2022-12-09T06:26:22.202Z,26.47
2022-12-09T06:28:50.907Z,25.43
2022-12-09T06:31:19.805Z,24.67
2022-12-09T06:33:55.391Z,23.73
2022-12-09T06:36:25.400Z,24.13
2022-12-09T06:38:54.748Z,22.80
2022-12-09T06:41:23.209Z,24.93
2022-12-09T06:43:51.492Z,24.60
2022-12-09T06:46:23.501Z,24.07
2022-12-09T06:48:54.143Z,25.93
2022-12-09T06:51:24.315Z,26.83
2022-12-09T06:53:52.738Z,27.07
2022-12-09T06:56:21.004Z,26.07
2022-12-09T06:58:49.282Z,25.67
2022-12-09T07:01:19.805Z,25.27
2022-12-09T07:03:58.591Z,26.17
2022-12-09T07:06:31.093Z,25.60
2022-12-09T07:09:03.923Z,25.23
2022-12-09T07:11:32.776Z,25.73
2022-12-09T07:14:01.388Z,24.83
2022-12-09T07:16:30.313Z,23.23
2022-12-09T07:18:58.741Z,24.77
2022-12-09T07:21:29.186Z,22.60
2022-12-09T07:24:00.779Z,23.60
2022-12-09T07:26:32.659Z,24.07
2022-12-09T07:29:03.113Z,24.70
2022-12-09T07:31:31.792Z,24.20
2022-12-09T07:34:00.896Z,25.97
2022-12-09T07:36:32.977Z,25.47
2022-12-09T07:39:04.032Z,25.77
2022-12-09T07:41:32.429Z,23.60
2022-12-09T07:44:00.705Z,23.40
2022-12-09T07:46:29.148Z,22.30
2022-12-09T07:48:58.867Z,22.50
2022-12-09T07:51:29.590Z,22.27
2022-12-09T07:53:59.565Z,20.73
2022-12-09T07:56:29.361Z,20.37
2022-12-09T07:58:58.184Z,21.60
2022-12-09T08:01:28.486Z,21.53
2022-12-09T08:03:57.253Z,20.13
2022-12-09T08:06:28.505Z,22.23
2022-12-09T08:09:01.674Z,22.50
2022-12-09T08:11:31.860Z,24.40
2022-12-09T08:14:07.261Z,25.13
2022-12-09T08:16:39.295Z,25.57
2022-12-09T08:19:08.077Z,26.40
2022-12-09T08:21:36.766Z,25.10
2022-12-09T08:24:08.825Z,25.17
2022-12-09T08:26:39.303Z,24.10
2022-12-09T08:29:10.065Z,24.17
2022-12-09T08:31:41.541Z,25.27
2022-12-09T08:34:10.867Z,24.57
2022-12-09T08:36:39.243Z,24.90
2022-12-09T08:39:09.499Z,25.63
2022-12-09T08:41:40.048Z,26.40
2022-12-09T08:44:11.121Z,25.23
2022-12-09T08:46:41.098Z,26.27
2022-12-09T08:49:10.852Z,26.50
2022-12-09T08:51:39.714Z,26.30
2022-12-09T08:54:09.248Z,26.77
2022-12-09T08:56:37.425Z,27.37
2022-12-09T08:59:06.111Z,26.50
2022-12-09T09:01:35.833Z,26.67
2022-12-09T09:04:06.641Z,27.27
2022-12-09T09:06:35.400Z,25.63
2022-12-09T09:09:04.396Z,27.03
2022-12-09T09:11:35.325Z,27.63
2022-12-09T09:14:05.809Z,25.70
2022-12-09T09:16:34.874Z,27.10
2022-12-09T09:19:06.004Z,26.23
2022-12-09T09:21:35.910Z,27.73
2022-12-09T09:24:08.704Z,26.17
2022-12-09T09:26:41.612Z,27.07
2022-12-09T09:29:11.836Z,26.70
2022-12-09T09:31:39.998Z,26.47
2022-12-09T09:34:09.086Z,25.07
2022-12-09T09:36:37.685Z,25.03
2022-12-09T09:39:06.105Z,24.97
2022-12-09T09:41:45.641Z,25.60
2022-12-09T09:44:23.282Z,24.03
2022-12-09T09:46:53.659Z,24.83
2022-12-09T09:49:29.860Z,26.00
2022-12-09T09:51:59.172Z,22.80
2022-12-09T09:54:27.557Z,23.30
2022-12-09T09:57:01.419Z,25.10
2022-12-09T09:59:40.530Z,25.50
2022-12-09T10:02:19.761Z,23.67
2022-12-09T10:05:06.042Z,23.10
2022-12-09T10:07:40.313Z,22.20
2022-12-09T10:10:32.399Z,21.50
2022-12-09T10:13:18.488Z,20.33
2022-12-09T10:15:54.046Z,21.10
2022-12-09T10:18:26.996Z,20.50
2022-12-09T10:20:55.581Z,19.90
2022-12-09T10:23:25.247Z,18.93
2022-12-09T10:25:56.880Z,19.20
2022-12-09T10:28:30.009Z,19.10
2022-12-09T10:30:58.960Z,19.43
2022-12-09T10:33:31.364Z,19.27
2022-12-09T10:36:00.096Z,20.93
2022-12-09T10:38:30.445Z,21.20
2022-12-09T10:41:03.855Z,21.47
2022-12-09T10:43:36.363Z,20.13
2022-12-09T10:46:17.862Z,20.77
2022-12-09T10:48:56.275Z,20.67
2022-12-09T10:51:27.151Z,21.40
2022-12-09T10:54:00.012Z,20.87
2022-12-09T10:56:30.104Z,20.10
2022-12-09T10:59:13.152Z,21.00
2022-12-09T11:01:53.638Z,22.17
2022-12-09T11:04:26.407Z,21.40
2022-12-09T11:06:59.811Z,21.20
2022-12-09T11:09:30.985Z,22.63
2022-12-09T11:12:00.159Z,22.37
2022-12-09T11:14:35.148Z,22.13
2022-12-09T11:17:16.488Z,21.60
2022-12-09T11:19:47.909Z,22.77
2022-12-09T11:22:29.043Z,24.00
2022-12-09T11:25:10.966Z,23.13
2022-12-09T11:27:42.110Z,24.10
2022-12-09T11:30:17.892Z,24.23
2022-12-09T11:33:09.768Z,25.03
2022-12-09T11:35:52.845Z,28.63
2022-12-09T11:38:46.221Z,33.23
2022-12-09T11:41:41.488Z,29.20
2022-12-09T11:44:26.397Z,27.13
2022-12-09T11:47:02.630Z,25.30
2022-12-09T11:49:33.855Z,22.80
2022-12-09T11:52:06.451Z,22.23
2022-12-09T11:54:42.867Z,20.87
2022-12-09T11:57:22.693Z,23.03
2022-12-09T11:59:54.932Z,25.40
2022-12-09T12:02:31.942Z,23.90
2022-12-09T12:05:04.029Z,22.77
2022-12-09T12:07:39.525Z,24.80
2022-12-09T12:10:17.677Z,23.57
2022-12-09T12:12:52.489Z,26.83
2022-12-09T12:15:25.653Z,26.80
2022-12-09T12:17:57.239Z,24.37
2022-12-09T12:20:42.059Z,26.00
2022-12-09T12:23:28.865Z,23.07
2022-12-09T12:26:04.875Z,23.73
2022-12-09T12:29:07.515Z,24.80
2022-12-09T12:31:58.901Z,23.20
2022-12-09T12:34:39.133Z,24.90
2022-12-09T12:37:21.208Z,26.27
2022-12-09T12:39:59.420Z,31.40
2022-12-09T12:42:37.591Z,36.30
2022-12-09T12:45:32.769Z,35.70
2022-12-09T12:48:07.103Z,35.77
2022-12-09T12:50:55.705Z,30.10
2022-12-09T12:53:35.876Z,28.63
2022-12-09T12:56:08.105Z,29.23
2022-12-09T12:58:55.161Z,26.40
2022-12-09T13:01:31.152Z,24.77
2022-12-09T13:04:08.785Z,25.60
2022-12-09T13:06:45.413Z,27.40
2022-12-09T13:09:20.624Z,24.50
2022-12-09T13:12:01.591Z,24.87
2022-12-09T13:14:35.329Z,26.80
2022-12-09T13:17:08.348Z,26.37
2022-12-09T13:19:41.321Z,27.07
2022-12-09T13:22:17.324Z,30.67
2022-12-09T13:24:59.794Z,28.93
2022-12-09T13:27:34.689Z,28.00
2022-12-09T13:30:05.926Z,28.37
2022-12-09T13:33:00.702Z,27.93
2022-12-09T13:35:35.804Z,26.53
2022-12-09T13:38:05.724Z,25.37
2022-12-09T13:40:36.889Z,27.20
2022-12-09T13:43:13.828Z,26.67
2022-12-09T13:45:58.072Z,27.23
2022-12-09T13:48:48.009Z,29.93
2022-12-09T13:51:17.676Z,28.67
2022-12-09T13:53:51.888Z,29.63
2022-12-09T13:56:27.040Z,27.93
2022-12-09T13:59:33.455Z,29.10
2022-12-09T14:02:04.195Z,29.17
2022-12-09T14:04:35.977Z,29.17
2022-12-09T14:07:17.089Z,28.23
2022-12-09T14:09:51.635Z,25.20
2022-12-09T14:12:53.080Z,20.50
2022-12-09T14:15:39.888Z,18.07
2022-12-09T14:18:31.128Z,21.47
2022-12-09T14:21:25.123Z,23.90
2022-12-09T14:24:31.733Z,22.17
2022-12-09T14:27:21.618Z,21.93
2022-12-09T14:29:53.075Z,23.20
2022-12-09T14:32:29.034Z,23.13
2022-12-09T14:35:19.647Z,22.00
2022-12-09T14:38:01.374Z,25.60
2022-12-09T14:40:53.958Z,25.87
2022-12-09T14:43:50.138Z,29.13
2022-12-09T14:46:24.244Z,29.63
2022-12-09T14:48:56.389Z,26.43
2022-12-09T14:51:27.124Z,25.97
2022-12-09T14:53:59.390Z,23.77
2022-12-09T14:56:28.776Z,18.03
2022-12-09T14:59:03.979Z,15.13
2022-12-09T15:01:47.279Z,15.07
2022-12-09T15:04:24.707Z,16.80
2022-12-09T15:07:14.620Z,19.83
2022-12-09T15:09:54.346Z,21.57
2022-12-09T15:12:26.133Z,22.23
2022-12-09T15:14:58.764Z,22.17
2022-12-09T15:17:30.745Z,23.20
2022-12-09T15:20:00.534Z,23.83
2022-12-09T15:22:31.487Z,25.60
2022-12-09T15:24:59.864Z,25.93
2022-12-09T15:27:27.985Z,26.37
2022-12-09T15:29:57.448Z,25.70
2022-12-09T15:32:27.571Z,25.30
2022-12-09T15:34:55.989Z,23.80
2022-12-09T15:37:28.155Z,24.43
2022-12-09T15:40:01.386Z,24.73
2022-12-09T15:42:33.810Z,28.53
2022-12-09T15:45:09.230Z,28.00
2022-12-09T15:47:40.200Z,29.87
2022-12-09T15:50:18.252Z,29.10
2022-12-09T15:52:51.212Z,26.63
2022-12-09T15:55:23.885Z,27.03
2022-12-09T15:57:56.142Z,26.97
2022-12-09T16:00:25.699Z,29.60
2022-12-09T16:02:54.222Z,29.70
2022-12-09T16:05:24.785Z,27.60
2022-12-09T16:07:57.881Z,29.80
2022-12-09T16:10:27.686Z,28.93
2022-12-09T16:13:07.820Z,25.77
2022-12-09T16:15:53.581Z,23.93
2022-12-09T16:18:24.777Z,23.37
2022-12-09T16:21:18.980Z,23.87
2022-12-09T16:23:49.904Z,22.77
2022-12-09T16:26:22.325Z,22.50
2022-12-09T16:28:59.249Z,23.20
2022-12-09T16:31:29.160Z,37.07
2022-12-09T16:33:57.555Z,37.30
2022-12-09T16:36:27.585Z,25.47
2022-12-09T16:39:43.627Z,24.33
2022-12-09T16:42:27.780Z,24.20
2022-12-09T16:45:21.814Z,20.33
2022-12-09T16:47:54.457Z,21.43
2022-12-09T16:50:23.052Z,20.50
2022-12-09T16:52:51.063Z,21.13
2022-12-09T16:55:22.101Z,21.43
2022-12-09T16:57:50.802Z,22.30
2022-12-09T17:00:19.650Z,22.63
2022-12-09T17:02:53.578Z,23.10
2022-12-09T17:05:21.559Z,30.87
2022-12-09T17:07:49.571Z,42.27
2022-12-09T17:10:17.995Z,27.83
2022-12-09T17:12:46.698Z,29.23
2022-12-09T17:15:15.494Z,28.57
2022-12-09T17:17:48.261Z,28.67
2022-12-09T17:20:18.268Z,31.67
2022-12-09T17:22:46.259Z,30.03
2022-12-09T17:25:14.679Z,30.50
2022-12-09T17:27:42.670Z,30.53
2022-12-09T17:30:11.672Z,31.70
2022-12-09T17:32:39.934Z,37.57
2022-12-09T17:35:12.561Z,33.80
2022-12-09T17:37:42.522Z,32.17
2022-12-09T17:40:12.043Z,33.60
2022-12-09T17:42:40.210Z,35.27
2022-12-09T17:45:10.299Z,33.83
2022-12-09T17:47:38.461Z,31.30
2022-12-09T17:50:07.050Z,30.00
2022-12-09T17:52:35.531Z,31.73
2022-12-09T17:55:06.647Z,31.40
2022-12-09T17:57:34.782Z,31.50
2022-12-09T18:00:02.895Z,32.07
2022-12-09T18:02:30.872Z,33.43
2022-12-09T18:05:01.620Z,33.07
2022-12-09T18:07:29.584Z,33.27
2022-12-09T18:09:57.558Z,31.87
2022-12-09T18:12:26.880Z,34.83
2022-12-09T18:14:54.869Z,34.27
2022-12-09T18:17:22.986Z,43.47
2022-12-09T18:19:50.978Z,36.13
2022-12-09T18:22:18.943Z,34.90
2022-12-09T18:24:46.923Z,37.27
2022-12-09T18:27:14.880Z,37.23
2022-12-09T18:29:44.249Z,35.17
2022-12-09T18:32:12.175Z,37.33
2022-12-09T18:34:40.181Z,37.47
2022-12-09T18:37:08.512Z,36.97
2022-12-09T18:39:37.656Z,37.93
2022-12-09T18:42:06.635Z,34.40
2022-12-09T18:44:34.764Z,35.87
2022-12-09T18:47:04.194Z,36.17
2022-12-09T18:49:32.157Z,35.23
2022-12-09T18:52:00.167Z,36.10
2022-12-09T18:54:32.322Z,33.70
2022-12-09T18:57:03.819Z,31.53
2022-12-09T18:59:32.341Z,32.60
2022-12-09T19:02:00.452Z,31.90
2022-12-09T19:04:30.977Z,33.93
2022-12-09T19:07:00.879Z,33.73
2022-12-09T19:09:33.294Z,35.37
2022-12-09T19:12:22.928Z,33.37
2022-12-09T19:14:50.703Z,32.63
2022-12-09T19:17:19.097Z,32.53
2022-12-09T19:19:49.442Z,32.63
2022-12-09T19:22:17.401Z,30.40
2022-12-09T19:24:45.393Z,30.80
2022-12-09T19:27:13.906Z,31.43
2022-12-09T19:29:42.047Z,30.90
2022-12-09T19:32:29.579Z,31.13
2022-12-09T19:34:59.448Z,31.60
2022-12-09T19:37:27.441Z,30.67
2022-12-09T19:39:55.415Z,32.00
2022-12-09T19:42:23.381Z,31.03
2022-12-09T19:45:12.130Z,33.17
2022-12-09T19:47:39.420Z,30.90
2022-12-09T19:50:10.012Z,31.30
2022-12-09T19:52:38.285Z,30.87
2022-12-09T19:55:08.397Z,29.83
2022-12-09T19:57:36.364Z,28.33
2022-12-09T20:00:05.183Z,30.73
2022-12-09T20:02:34.258Z,30.10
2022-12-09T20:05:02.260Z,29.30
2022-12-09T20:07:31.575Z,28.03
2022-12-09T20:09:59.543Z,26.80
2022-12-09T20:12:27.660Z,24.60
2022-12-09T20:14:55.629Z,24.73
2022-12-09T20:17:23.577Z,26.03
2022-12-09T20:19:51.528Z,24.20
2022-12-09T20:22:19.485Z,23.10
2022-12-09T20:24:48.802Z,22.03
2022-12-09T20:27:16.765Z,22.33
2022-12-09T20:29:44.747Z,21.87
2022-12-09T20:32:12.801Z,21.17
2022-12-09T20:34:40.858Z,20.97
2022-12-09T20:37:09.063Z,21.40
2022-12-09T20:39:37.133Z,22.90
2022-12-09T20:42:06.579Z,21.73
2022-12-09T20:44:34.544Z,22.43
2022-12-09T20:47:02.548Z,22.73
2022-12-09T20:49:30.701Z,23.70
2022-12-09T20:51:58.756Z,24.70
2022-12-09T20:54:26.881Z,26.13
2022-12-09T20:56:54.906Z,28.07
2022-12-09T20:59:25.206Z,28.90
2022-12-09T21:01:54.254Z,29.07
2022-12-09T21:04:22.575Z,33.80
2022-12-09T21:06:50.560Z,29.33
2022-12-09T21:09:22.198Z,31.27
2022-12-09T21:11:51.124Z,29.97
2022-12-09T21:14:19.263Z,30.17
2022-12-09T21:16:50.516Z,29.37
2022-12-09T21:19:25.242Z,31.60
2022-12-09T21:21:54.503Z,30.63
2022-12-09T21:24:24.219Z,28.87
2022-12-09T21:26:55.407Z,26.03
2022-12-09T21:29:31.188Z,28.77
2022-12-09T21:32:01.926Z,25.77
2022-12-09T21:34:30.144Z,26.80
2022-12-09T21:36:58.197Z,24.77
2022-12-09T21:39:26.377Z,23.97
2022-12-09T21:41:55.259Z,22.93
2022-12-09T21:44:25.400Z,22.37
2022-12-09T21:46:53.497Z,22.37
2022-12-09T21:49:22.936Z,23.17
2022-12-09T21:51:50.908Z,22.63
2022-12-09T21:54:19.050Z,22.27
2022-12-09T21:56:47.327Z,22.03
2022-12-09T21:59:15.431Z,20.20
2022-12-09T22:01:43.904Z,21.20
2022-12-09T22:04:16.090Z,21.20
2022-12-09T22:06:47.666Z,22.43
2022-12-09T22:09:16.550Z,22.00
2022-12-09T22:11:44.862Z,23.40
2022-12-09T22:14:13.288Z,23.13
2022-12-09T22:16:43.559Z,21.67
2022-12-09T22:19:18.541Z,24.20
2022-12-09T22:21:48.765Z,23.10
2022-12-09T22:24:17.757Z,23.83
2022-12-09T22:26:46.164Z,24.17
2022-12-09T22:29:15.573Z,22.37
2022-12-09T22:31:44.363Z,24.03
2022-12-09T22:34:14.387Z,23.47
2022-12-09T22:36:43.027Z,21.60
2022-12-09T22:39:14.309Z,22.43
2022-12-09T22:41:43.754Z,20.07
2022-12-09T22:44:14.727Z,19.40
2022-12-09T22:46:43.179Z,20.33
2022-12-09T22:49:12.999Z,19.97
2022-12-09T22:51:41.826Z,20.20
2022-12-09T22:54:12.206Z,20.40
2022-12-09T22:56:42.793Z,19.60
2022-12-09T22:59:11.255Z,19.20
2022-12-09T23:01:39.503Z,18.83
2022-12-09T23:04:08.747Z,19.50
2022-12-09T23:06:38.773Z,18.23
2022-12-09T23:09:08.379Z,17.60
2022-12-09T23:11:38.057Z,17.33
2022-12-09T23:14:06.326Z,17.37
2022-12-09T23:16:34.578Z,17.40
2022-12-09T23:19:02.879Z,17.60
2022-12-09T23:21:33.481Z,17.00
2022-12-09T23:24:03.395Z,17.30
2022-12-09T23:26:33.759Z,15.97
2022-12-09T23:29:04.578Z,17.00
2022-12-09T23:31:34.525Z,16.27
2022-12-09T23:34:03.858Z,16.37
2022-12-09T23:36:33.903Z,16.37
2022-12-09T23:39:03.412Z,16.83
2022-12-09T23:41:31.653Z,15.77
2022-12-09T23:43:59.645Z,15.60
2022-12-09T23:46:31.068Z,15.23
2022-12-09T23:48:59.093Z,15.30
2022-12-09T23:51:29.144Z,14.93
2022-12-09T23:53:58.830Z,14.40
2022-12-09T23:56:28.851Z,15.07
2022-12-09T23:58:58.772Z,14.80
